Time;durP1;ratioP1;P1;durP2;ratioP2;P2;SDS_P1;SDS_P2;PMS_P1;PMS_P2;Temp;Humidity;BMP_temperature;BMP_pressure;BME280_temperature;BME280_humidity;BME280_pressure;Samples;Min_cycle;Max_cycle;Signal;HPM_P1;HPM_P2
2021/08/06 00:02:06;;;;;;;;;;;26.90;95.10;;;;;;5066510;28;19920;-50
2021/08/06 00:04:34;;;;;;;;;;;26.90;95.10;;;;;;5066229;28;19939;-50
2021/08/06 00:07:01;;;;;;;;;;;26.90;95.10;;;;;;5066031;28;19920;-48
2021/08/06 00:09:27;;;;;;;;;;;26.90;95.00;;;;;;5066030;28;19955;-55
2021/08/06 00:11:59;;;;;;;;;;;26.90;95.00;;;;;;5067082;28;19921;-51
2021/08/06 00:14:26;;;;;;;;;;;26.90;95.10;;;;;;5066124;28;19939;-45
2021/08/06 00:16:52;;;;;;;;;;;26.90;95.00;;;;;;5066042;28;19944;-47
2021/08/06 00:19:19;;;;;;;;;;;26.90;95.00;;;;;;5065900;28;19909;-46
2021/08/06 00:21:45;;;;;;;;;;;26.90;95.00;;;;;;5066042;28;19909;-50
2021/08/06 00:24:12;;;;;;;;;;;26.90;95.00;;;;;;5065662;28;20185;-45
2021/08/06 00:26:38;;;;;;;;;;;26.90;95.10;;;;;;5065882;28;19935;-47
2021/08/06 00:29:04;;;;;;;;;;;26.80;95.00;;;;;;5065740;28;19978;-48
2021/08/06 00:31:30;;;;;;;;;;;26.80;95.00;;;;;;5065853;28;19916;-44
2021/08/06 00:33:56;;;;;;;;;;;26.80;95.00;;;;;;5065567;28;20308;-51
2021/08/06 00:36:23;;;;;;;;;;;26.80;94.90;;;;;;5065690;28;20189;-44
2021/08/06 00:38:49;;;;;;;;;;;26.80;94.90;;;;;;5065610;28;19943;-44
2021/08/06 00:41:15;;;;;;;;;;;26.80;95.00;;;;;;5065459;28;19909;-44
2021/08/06 00:43:41;;;;;;;;;;;26.80;95.00;;;;;;5065438;28;19984;-45
2021/08/06 00:46:07;;;;;;;;;;;26.80;94.90;;;;;;5065463;28;19916;-50
2021/08/06 00:48:33;;;;;;;;;;;26.80;94.90;;;;;;5065228;28;19908;-45
2021/08/06 00:51:00;;;;;;;;;;;26.80;94.80;;;;;;5065294;28;19940;-50
2021/08/06 00:53:27;;;;;;;;;;;26.80;94.80;;;;;;5065326;28;19908;-49
2021/08/06 00:55:53;;;;;;;;;;;26.70;94.80;;;;;;5065128;28;19943;-47
2021/08/06 00:58:19;;;;;;;;;;;26.70;94.80;;;;;;5066040;28;19913;-51
2021/08/06 01:00:49;;;;;;;;;;;26.80;94.80;;;;;;5065159;28;19912;-46
2021/08/06 01:03:15;;;;;;;;;;;26.70;94.90;;;;;;5064987;28;19908;-47
2021/08/06 01:05:43;;;;;;;;;;;26.70;94.80;;;;;;5064980;28;19943;-44
2021/08/06 01:08:09;;;;;;;;;;;26.70;94.80;;;;;;5064977;28;19923;-45
2021/08/06 01:10:41;;;;;;;;;;;26.70;94.80;;;;;;5064771;28;19912;-50
2021/08/06 01:13:08;;;;;;;;;;;26.70;94.80;;;;;;5064960;28;19940;-48
2021/08/06 01:15:36;;;;;;;;;;;26.70;94.90;;;;;;5064320;28;19932;-48
2021/08/06 01:18:03;;;;;;;;;;;26.70;94.90;;;;;;5063624;28;19909;-50
2021/08/06 01:20:34;;;;;;;;;;;26.70;94.90;;;;;;5065496;28;19905;-51
2021/08/06 01:23:03;;;;;;;;;;;26.60;94.90;;;;;;5064687;28;19917;-52
2021/08/06 01:25:48;;;;;;;;;;;26.60;95.00;;;;;;5065386;28;19936;-44
2021/08/06 01:28:16;;;;;;;;;;;26.60;95.00;;;;;;5064994;28;20228;-47
2021/08/06 01:30:43;;;;;;;;;;;26.60;95.00;;;;;;5064166;28;19905;-48
2021/08/06 01:33:09;;;;;;;;;;;26.60;95.00;;;;;;5063730;28;19990;-45
2021/08/06 01:35:36;;;;;;;;;;;26.60;95.00;;;;;;5064086;28;19979;-46
2021/08/06 01:38:02;;;;;;;;;;;26.60;95.00;;;;;;5064221;28;19908;-47
2021/08/06 01:40:30;;;;;;;;;;;26.60;95.00;;;;;;5064870;28;19908;-47
2021/08/06 01:42:59;;;;;;;;;;;26.50;95.10;;;;;;5064106;28;19951;-47
2021/08/06 01:45:28;;;;;;;;;;;26.50;95.10;;;;;;5064772;28;19908;-44
2021/08/06 01:47:54;;;;;;;;;;;26.50;95.20;;;;;;5064899;28;19923;-50
2021/08/06 01:50:26;;;;;;;;;;;26.50;95.30;;;;;;5064347;28;20120;-48
2021/08/06 01:53:02;;;;;;;;;;;26.40;95.40;;;;;;5064789;28;19909;-42
2021/08/06 01:55:51;;;;;;;;;;;26.40;95.50;;;;;;5064680;28;19981;-45
2021/08/06 01:58:18;;;;;;;;;;;26.40;95.50;;;;;;5061299;28;19954;-48
2021/08/06 02:00:44;;;;;;;;;;;26.40;95.40;;;;;;5064841;28;19909;-41
2021/08/06 02:03:10;;;;;;;;;;;26.30;95.40;;;;;;5064457;28;20201;-49
2021/08/06 02:05:37;;;;;;;;;;;26.30;95.50;;;;;;5064511;28;19928;-44
2021/08/06 02:08:04;;;;;;;;;;;26.30;95.50;;;;;;5064385;28;19952;-44
2021/08/06 02:10:30;;;;;;;;;;;26.30;95.50;;;;;;5063960;28;19905;-49
2021/08/06 02:12:57;;;;;;;;;;;26.40;95.50;;;;;;5063441;28;19943;-47
2021/08/06 02:15:23;;;;;;;;;;;26.40;95.60;;;;;;5064925;28;19905;-47
2021/08/06 02:17:50;;;;;;;;;;;26.30;95.60;;;;;;5064801;28;19920;-48
2021/08/06 02:20:17;;;;;;;;;;;26.30;95.60;;;;;;5064107;28;19913;-41
2021/08/06 02:22:45;;;;;;;;;;;26.30;95.60;;;;;;5064549;28;19920;-51
2021/08/06 02:25:12;;;;;;;;;;;26.20;95.80;;;;;;5064054;28;19976;-40
2021/08/06 02:27:39;;;;;;;;;;;26.20;95.90;;;;;;5062982;28;19924;-44
2021/08/06 02:30:06;;;;;;;;;;;26.20;95.80;;;;;;5050222;28;19908;-45
2021/08/06 02:32:32;;;;;;;;;;;26.20;95.80;;;;;;5068343;28;19913;-44
2021/08/06 02:34:59;;;;;;;;;;;26.20;95.90;;;;;;5067925;28;19970;-42
2021/08/06 02:37:25;;;;;;;;;;;26.20;95.90;;;;;;5068431;28;19913;-44
2021/08/06 02:39:51;;;;;;;;;;;26.20;95.90;;;;;;5067887;28;19912;-44
2021/08/06 02:42:17;;;;;;;;;;;26.20;96.10;;;;;;5067995;28;19920;-49
2021/08/06 02:44:44;;;;;;;;;;;26.20;96.00;;;;;;5067811;28;19905;-44
2021/08/06 02:47:10;;;;;;;;;;;26.20;95.90;;;;;;5067978;28;19983;-46
2021/08/06 02:49:36;;;;;;;;;;;26.20;95.90;;;;;;5067636;28;20125;-48
2021/08/06 02:52:04;;;;;;;;;;;26.20;95.90;;;;;;5067914;28;20105;-45
2021/08/06 02:54:31;;;;;;;;;;;26.20;96.00;;;;;;5067542;28;19909;-46
2021/08/06 02:56:58;;;;;;;;;;;26.30;95.90;;;;;;5067696;28;19935;-49
2021/08/06 02:59:24;;;;;;;;;;;26.30;95.80;;;;;;5067671;28;19905;-46
2021/08/06 03:01:50;;;;;;;;;;;26.30;95.90;;;;;;5067291;28;19913;-45
2021/08/06 03:04:17;;;;;;;;;;;26.30;95.80;;;;;;5065608;28;19904;-47
2021/08/06 03:06:43;;;;;;;;;;;26.30;95.90;;;;;;5066446;28;19921;-47
2021/08/06 03:09:09;;;;;;;;;;;26.30;95.90;;;;;;5066750;28;19905;-43
2021/08/06 03:11:35;;;;;;;;;;;26.30;95.80;;;;;;5066892;28;20185;-42
2021/08/06 03:14:02;;;;;;;;;;;26.30;95.80;;;;;;5065605;28;19911;-46
2021/08/06 03:16:28;;;;;;;;;;;26.30;95.80;;;;;;5066766;28;20183;-46
2021/08/06 03:18:58;;;;;;;;;;;26.30;95.70;;;;;;5066797;28;19905;-47
2021/08/06 03:21:24;;;;;;;;;;;26.30;95.60;;;;;;5067132;28;19913;-45
2021/08/06 03:23:51;;;;;;;;;;;26.30;95.70;;;;;;5049319;28;19912;-45
2021/08/06 03:26:17;;;;;;;;;;;26.20;95.50;;;;;;5066469;28;19912;-47
2021/08/06 03:28:43;;;;;;;;;;;26.20;95.60;;;;;;5066961;28;19917;-46
2021/08/06 03:31:11;;;;;;;;;;;26.30;95.60;;;;;;5066993;28;19909;-45
2021/08/06 03:33:37;;;;;;;;;;;26.20;95.60;;;;;;5066719;28;19972;-50
2021/08/06 03:36:04;;;;;;;;;;;26.30;95.60;;;;;;5066936;28;19923;-46
2021/08/06 03:38:30;;;;;;;;;;;26.30;95.50;;;;;;5066327;28;19912;-44
2021/08/06 03:40:56;;;;;;;;;;;26.30;95.50;;;;;;5065042;28;20019;-48
2021/08/06 03:43:22;;;;;;;;;;;26.30;95.50;;;;;;5066461;28;19908;-46
2021/08/06 03:45:48;;;;;;;;;;;26.30;95.60;;;;;;5066843;28;19928;-49
2021/08/06 03:48:14;;;;;;;;;;;26.30;95.70;;;;;;5066479;28;20051;-50
2021/08/06 03:50:42;;;;;;;;;;;26.30;95.60;;;;;;5066261;28;19936;-45
2021/08/06 03:53:10;;;;;;;;;;;26.30;95.60;;;;;;5066415;28;19908;-43
2021/08/06 03:55:37;;;;;;;;;;;26.30;95.60;;;;;;5065991;28;19940;-43
2021/08/06 03:58:03;;;;;;;;;;;26.30;95.60;;;;;;5066167;28;20197;-52
2021/08/06 04:00:35;;;;;;;;;;;26.30;95.60;;;;;;5066271;28;19976;-45
2021/08/06 04:03:01;;;;;;;;;;;26.30;95.50;;;;;;5066635;28;19959;-50
2021/08/06 04:05:27;;;;;;;;;;;26.20;95.50;;;;;;5066097;28;19905;-45
2021/08/06 04:07:54;;;;;;;;;;;26.20;95.40;;;;;;5065773;28;19943;-46
2021/08/06 04:10:21;;;;;;;;;;;26.20;95.50;;;;;;5065711;28;19912;-45
2021/08/06 04:12:48;;;;;;;;;;;26.20;95.50;;;;;;5066476;28;19909;-43
2021/08/06 04:15:15;;;;;;;;;;;26.20;95.50;;;;;;5064973;28;20105;-49
2021/08/06 04:17:41;;;;;;;;;;;26.20;95.60;;;;;;5065061;28;20287;-48
2021/08/06 04:20:08;;;;;;;;;;;26.20;95.50;;;;;;5065821;28;19986;-50
2021/08/06 04:22:34;;;;;;;;;;;26.20;95.60;;;;;;5066385;28;19912;-45
2021/08/06 04:25:01;;;;;;;;;;;26.20;95.60;;;;;;5065660;28;20101;-49
2021/08/06 04:27:27;;;;;;;;;;;26.20;95.60;;;;;;5065836;28;19980;-45
2021/08/06 04:29:53;;;;;;;;;;;26.20;95.60;;;;;;5065657;28;19908;-46
2021/08/06 04:32:19;;;;;;;;;;;26.20;95.60;;;;;;5064938;28;19909;-48
2021/08/06 04:34:46;;;;;;;;;;;26.20;95.60;;;;;;5065533;28;20093;-48
2021/08/06 04:37:12;;;;;;;;;;;26.20;95.60;;;;;;5065669;28;19909;-43
2021/08/06 04:39:39;;;;;;;;;;;26.20;95.60;;;;;;5065700;28;19916;-44
2021/08/06 04:42:05;;;;;;;;;;;26.20;95.60;;;;;;5065796;28;19908;-43
2021/08/06 04:44:35;;;;;;;;;;;26.20;95.70;;;;;;5065533;28;20105;-43
2021/08/06 04:47:02;;;;;;;;;;;26.20;95.70;;;;;;5065642;28;20256;-45
2021/08/06 04:49:28;;;;;;;;;;;26.20;95.70;;;;;;5064212;28;19936;-45
2021/08/06 04:51:55;;;;;;;;;;;26.20;95.60;;;;;;5065010;28;19948;-43
2021/08/06 04:54:21;;;;;;;;;;;26.20;95.60;;;;;;5065058;28;19915;-44
2021/08/06 04:56:47;;;;;;;;;;;26.20;95.60;;;;;;5065380;28;19915;-49
2021/08/06 04:59:13;;;;;;;;;;;26.20;95.60;;;;;;5065336;28;20253;-44
2021/08/06 05:01:40;;;;;;;;;;;26.20;95.50;;;;;;5065471;28;19909;-43
2021/08/06 05:04:06;;;;;;;;;;;26.20;95.50;;;;;;5065171;28;19908;-43
2021/08/06 05:06:36;;;;;;;;;;;26.20;95.60;;;;;;5063639;28;20105;-42
2021/08/06 05:09:11;;;;;;;;;;;26.20;95.60;;;;;;5065107;28;19905;-41
2021/08/06 05:11:38;;;;;;;;;;;26.20;95.60;;;;;;5063852;28;19941;-46
2021/08/06 05:14:04;;;;;;;;;;;26.20;95.60;;;;;;5065073;28;19943;-47
2021/08/06 05:16:30;;;;;;;;;;;26.20;95.50;;;;;;5065115;28;19935;-47
2021/08/06 05:18:56;;;;;;;;;;;26.10;95.50;;;;;;5064725;28;20101;-49
2021/08/06 05:21:22;;;;;;;;;;;26.10;95.50;;;;;;5063675;28;19912;-44
2021/08/06 05:23:48;;;;;;;;;;;26.10;95.50;;;;;;5064793;28;19905;-47
2021/08/06 05:26:15;;;;;;;;;;;26.10;95.60;;;;;;5064407;28;19917;-47
2021/08/06 05:28:41;;;;;;;;;;;26.10;95.60;;;;;;5064720;28;19913;-44
2021/08/06 05:31:08;;;;;;;;;;;26.10;95.60;;;;;;5064868;28;19913;-46
2021/08/06 05:33:34;;;;;;;;;;;26.10;95.50;;;;;;5064571;28;19909;-44
2021/08/06 05:36:00;;;;;;;;;;;26.10;95.50;;;;;;5064736;28;19917;-49
2021/08/06 05:38:26;;;;;;;;;;;26.10;95.50;;;;;;5064628;28;19909;-47
2021/08/06 05:40:52;;;;;;;;;;;26.10;95.50;;;;;;5063027;28;20171;-54
2021/08/06 05:43:18;;;;;;;;;;;26.10;95.60;;;;;;5064391;28;19933;-45
2021/08/06 05:45:44;;;;;;;;;;;26.10;95.60;;;;;;5064362;28;19905;-47
2021/08/06 05:48:13;;;;;;;;;;;26.10;95.70;;;;;;5064382;28;19909;-46
2021/08/06 05:50:40;;;;;;;;;;;26.10;95.70;;;;;;5064297;28;19904;-43
2021/08/06 05:53:06;;;;;;;;;;;26.00;95.70;;;;;;5063326;28;20109;-47
2021/08/06 05:55:33;;;;;;;;;;;26.10;95.70;;;;;;5063546;28;19958;-57
2021/08/06 05:57:59;;;;;;;;;;;26.10;95.80;;;;;;5064136;28;20144;-48
2021/08/06 06:00:25;;;;;;;;;;;26.10;95.70;;;;;;5064388;28;20192;-52
2021/08/06 06:02:51;;;;;;;;;;;26.00;95.70;;;;;;5064572;28;19913;-47
2021/08/06 06:05:17;;;;;;;;;;;26.00;95.70;;;;;;5064183;28;19911;-45
2021/08/06 06:07:44;;;;;;;;;;;26.00;95.70;;;;;;5063988;28;19925;-53
2021/08/06 06:10:11;;;;;;;;;;;26.10;95.80;;;;;;5064243;28;20083;-51
2021/08/06 06:12:37;;;;;;;;;;;26.10;95.80;;;;;;5064442;28;19919;-46
2021/08/06 06:15:03;;;;;;;;;;;26.00;95.80;;;;;;5064226;28;19909;-50
2021/08/06 06:17:29;;;;;;;;;;;26.00;95.80;;;;;;5064615;28;19920;-48
2021/08/06 06:19:55;;;;;;;;;;;26.00;95.80;;;;;;5064050;28;19905;-46
2021/08/06 06:22:22;;;;;;;;;;;26.10;95.80;;;;;;5064487;28;20116;-46
2021/08/06 06:24:48;;;;;;;;;;;26.00;95.80;;;;;;5064054;28;19928;-50
2021/08/06 06:27:14;;;;;;;;;;;26.10;95.80;;;;;;5064326;28;19916;-53
2021/08/06 06:29:40;;;;;;;;;;;26.10;95.80;;;;;;5063868;28;19976;-48
2021/08/06 06:32:06;;;;;;;;;;;26.10;95.90;;;;;;5064352;28;19971;-45
2021/08/06 06:34:32;;;;;;;;;;;26.10;95.90;;;;;;5063950;28;19905;-45
2021/08/06 06:36:59;;;;;;;;;;;26.00;95.80;;;;;;5063932;28;19951;-50
2021/08/06 06:39:25;;;;;;;;;;;26.00;95.90;;;;;;5064440;28;19912;-47
2021/08/06 06:41:51;;;;;;;;;;;26.00;95.90;;;;;;5064372;28;19944;-46
2021/08/06 06:44:17;;;;;;;;;;;26.00;95.90;;;;;;5064301;28;19912;-49
2021/08/06 06:46:43;;;;;;;;;;;26.00;95.90;;;;;;5064345;28;19917;-47
2021/08/06 06:49:10;;;;;;;;;;;26.00;95.90;;;;;;5064323;28;19912;-48
2021/08/06 06:51:36;;;;;;;;;;;26.00;95.90;;;;;;5064273;28;19912;-47
2021/08/06 06:54:02;;;;;;;;;;;26.00;96.00;;;;;;5064274;28;19927;-47
2021/08/06 06:56:29;;;;;;;;;;;26.00;96.00;;;;;;5064352;28;19948;-48
2021/08/06 06:58:55;;;;;;;;;;;26.00;96.00;;;;;;5064016;28;19911;-51
2021/08/06 07:01:21;;;;;;;;;;;26.00;96.00;;;;;;5064444;28;19913;-48
2021/08/06 07:03:47;;;;;;;;;;;26.00;96.00;;;;;;5064146;28;19904;-49
2021/08/06 07:06:17;;;;;;;;;;;26.00;96.10;;;;;;5063998;28;19920;-47
2021/08/06 07:08:43;;;;;;;;;;;26.00;96.10;;;;;;5064068;28;19904;-47
2021/08/06 07:11:09;;;;;;;;;;;26.00;96.10;;;;;;5064287;28;19992;-45
2021/08/06 07:13:36;;;;;;;;;;;26.00;96.10;;;;;;5064164;28;19911;-49
2021/08/06 07:16:02;;;;;;;;;;;26.00;96.20;;;;;;5068218;28;19928;-51
2021/08/06 07:18:28;;;;;;;;;;;26.00;96.20;;;;;;5067625;28;19939;-49
2021/08/06 07:20:54;;;;;;;;;;;26.00;96.20;;;;;;5067883;28;20267;-48
2021/08/06 07:23:20;;;;;;;;;;;26.00;96.20;;;;;;5067426;28;19936;-50
2021/08/06 07:25:46;;;;;;;;;;;26.00;96.20;;;;;;5067579;28;19995;-47
2021/08/06 07:28:13;;;;;;;;;;;26.00;96.20;;;;;;5067480;28;19930;-45
2021/08/06 07:30:39;;;;;;;;;;;26.00;96.20;;;;;;5067246;28;19904;-54
2021/08/06 07:33:05;;;;;;;;;;;26.00;96.20;;;;;;5067402;28;19916;-48
2021/08/06 07:35:32;;;;;;;;;;;26.00;96.30;;;;;;5067417;28;19905;-47
2021/08/06 07:37:59;;;;;;;;;;;26.00;96.30;;;;;;5067388;28;20022;-46
2021/08/06 07:40:26;;;;;;;;;;;25.90;96.30;;;;;;5067319;28;19905;-48
2021/08/06 07:42:54;;;;;;;;;;;25.90;96.30;;;;;;5067722;28;19913;-49
2021/08/06 07:45:21;;;;;;;;;;;26.00;96.30;;;;;;5067087;28;19905;-50
2021/08/06 07:47:47;;;;;;;;;;;25.90;96.30;;;;;;5067543;28;20071;-48
2021/08/06 07:50:13;;;;;;;;;;;25.90;96.30;;;;;;5067155;28;19912;-52
2021/08/06 07:52:40;;;;;;;;;;;25.90;96.30;;;;;;5066735;28;19920;-49
2021/08/06 07:55:07;;;;;;;;;;;25.90;96.30;;;;;;5067118;28;19912;-50
2021/08/06 07:57:33;;;;;;;;;;;25.90;96.30;;;;;;5065880;28;20097;-48
2021/08/06 07:59:59;;;;;;;;;;;25.90;96.30;;;;;;5066862;28;19909;-51
2021/08/06 08:02:26;;;;;;;;;;;25.90;96.30;;;;;;5067274;28;20284;-51
2021/08/06 08:04:52;;;;;;;;;;;25.90;96.30;;;;;;5066802;28;19967;-53
2021/08/06 08:07:19;;;;;;;;;;;25.90;96.30;;;;;;5066391;28;19920;-52
2021/08/06 08:09:45;;;;;;;;;;;25.90;96.30;;;;;;5066793;28;19909;-46
2021/08/06 08:12:13;;;;;;;;;;;25.90;96.30;;;;;;5067175;28;19916;-50
2021/08/06 08:14:39;;;;;;;;;;;25.90;96.30;;;;;;5066614;28;19909;-48
2021/08/06 08:17:05;;;;;;;;;;;25.90;96.40;;;;;;5066976;28;19924;-48
2021/08/06 08:19:32;;;;;;;;;;;25.90;96.40;;;;;;5066571;28;19971;-45
2021/08/06 08:21:58;;;;;;;;;;;25.90;96.40;;;;;;5066802;28;19908;-49
2021/08/06 08:24:24;;;;;;;;;;;25.80;96.30;;;;;;5066407;28;19916;-47
2021/08/06 08:26:50;;;;;;;;;;;25.80;96.50;;;;;;5066560;28;19952;-48
2021/08/06 08:29:16;;;;;;;;;;;25.80;96.30;;;;;;5066395;28;19947;-48
2021/08/06 08:31:42;;;;;;;;;;;25.80;96.30;;;;;;5066422;28;19909;-45
2021/08/06 08:34:08;;;;;;;;;;;25.80;96.30;;;;;;5066410;28;19947;-48
2021/08/06 08:36:35;;;;;;;;;;;25.80;96.30;;;;;;5066463;28;19913;-49
2021/08/06 08:39:01;;;;;;;;;;;25.80;96.30;;;;;;5066079;28;19931;-52
2021/08/06 08:41:27;;;;;;;;;;;25.80;96.20;;;;;;5066403;28;19984;-47
2021/08/06 08:43:54;;;;;;;;;;;25.80;96.20;;;;;;5066152;28;19916;-49
2021/08/06 08:46:25;;;;;;;;;;;25.80;96.20;;;;;;5065991;28;20203;-53
2021/08/06 08:48:52;;;;;;;;;;;25.70;96.10;;;;;;5065953;28;19908;-51
2021/08/06 08:51:18;;;;;;;;;;;25.70;96.10;;;;;;5066030;28;20178;-50
2021/08/06 08:53:44;;;;;;;;;;;25.70;96.10;;;;;;5065763;28;19939;-49
2021/08/06 08:56:10;;;;;;;;;;;25.70;96.10;;;;;;5066103;28;19909;-46
2021/08/06 08:58:40;;;;;;;;;;;25.70;96.00;;;;;;5065667;28;20105;-47
2021/08/06 09:01:06;;;;;;;;;;;25.70;96.10;;;;;;5065591;28;19909;-49
2021/08/06 09:03:45;;;;;;;;;;;25.70;96.10;;;;;;5065698;28;19909;-55
2021/08/06 09:06:12;;;;;;;;;;;25.70;96.10;;;;;;5065701;28;19915;-46
2021/08/06 09:08:38;;;;;;;;;;;25.70;96.10;;;;;;5065427;28;19978;-50
2021/08/06 09:11:24;;;;;;;;;;;25.60;96.00;;;;;;5065660;28;20234;-47
2021/08/06 09:13:50;;;;;;;;;;;25.60;96.00;;;;;;5065215;28;19905;-48
2021/08/06 09:16:17;;;;;;;;;;;25.60;96.10;;;;;;5065700;28;20189;-45
2021/08/06 09:18:43;;;;;;;;;;;25.60;96.10;;;;;;5065420;28;19905;-45
2021/08/06 09:21:15;;;;;;;;;;;25.50;96.00;;;;;;5065528;28;19913;-48
2021/08/06 09:23:42;;;;;;;;;;;25.60;96.00;;;;;;5065443;28;20184;-53
2021/08/06 09:26:27;;;;;;;;;;;25.60;96.00;;;;;;5065316;28;19940;-45
2021/08/06 09:29:08;;;;;;;;;;;25.60;96.00;;;;;;5065328;28;19972;-49
2021/08/06 09:31:36;;;;;;;;;;;25.50;95.90;;;;;;5065322;28;19913;-48
2021/08/06 09:34:13;;;;;;;;;;;25.50;95.90;;;;;;5065188;28;20303;-49
2021/08/06 09:37:00;;;;;;;;;;;25.50;95.90;;;;;;5064900;28;19935;-43
2021/08/06 09:39:30;;;;;;;;;;;25.50;95.90;;;;;;5061224;28;19905;-45
2021/08/06 09:41:56;;;;;;;;;;;25.50;95.90;;;;;;5065317;28;19913;-43
2021/08/06 09:44:25;;;;;;;;;;;25.50;95.90;;;;;;5064862;28;19942;-44
2021/08/06 09:46:51;;;;;;;;;;;25.50;95.90;;;;;;5065153;28;20105;-43
2021/08/06 09:49:18;;;;;;;;;;;25.50;95.90;;;;;;5064949;28;19911;-46
2021/08/06 09:51:45;;;;;;;;;;;25.50;95.90;;;;;;5064931;28;19920;-43
2021/08/06 09:54:18;;;;;;;;;;;25.40;95.80;;;;;;5064811;28;19905;-45
2021/08/06 09:56:45;;;;;;;;;;;25.40;95.80;;;;;;5064990;28;19913;-45
2021/08/06 09:59:11;;;;;;;;;;;25.40;95.80;;;;;;5064966;28;19943;-51
2021/08/06 10:01:37;;;;;;;;;;;25.40;95.80;;;;;;5065049;28;19913;-50
2021/08/06 10:04:14;;;;;;;;;;;25.40;95.80;;;;;;5064666;28;19908;-46
2021/08/06 10:06:55;;;;;;;;;;;25.40;95.80;;;;;;5064516;28;19920;-48
2021/08/06 10:09:22;;;;;;;;;;;25.40;95.90;;;;;;5064630;28;19932;-45
2021/08/06 10:11:48;;;;;;;;;;;25.40;95.90;;;;;;5064840;28;19924;-48
2021/08/06 10:14:14;;;;;;;;;;;25.30;95.80;;;;;;5064579;28;19912;-42
2021/08/06 10:16:40;;;;;;;;;;;25.40;95.80;;;;;;5064720;28;19923;-44
2021/08/06 10:19:07;;;;;;;;;;;25.40;95.80;;;;;;5063969;28;20239;-44
2021/08/06 10:21:33;;;;;;;;;;;25.30;95.80;;;;;;5064002;28;19916;-47
2021/08/06 10:24:00;;;;;;;;;;;25.30;95.80;;;;;;5064075;28;19967;-49
2021/08/06 10:26:26;;;;;;;;;;;25.30;95.80;;;;;;5064030;28;19919;-44
2021/08/06 10:28:53;;;;;;;;;;;25.30;95.80;;;;;;5064020;28;20082;-45
2021/08/06 10:31:20;;;;;;;;;;;25.30;95.90;;;;;;5064055;28;19909;-46
2021/08/06 10:34:01;;;;;;;;;;;25.30;95.90;;;;;;5063828;28;19909;-43
2021/08/06 10:36:47;;;;;;;;;;;25.30;95.90;;;;;;5064127;28;19909;-45
2021/08/06 10:39:33;;;;;;;;;;;25.30;96.00;;;;;;5063949;28;19915;-51
2021/08/06 10:42:00;;;;;;;;;;;25.30;96.00;;;;;;5064101;28;19909;-50
2021/08/06 10:44:46;;;;;;;;;;;25.30;96.10;;;;;;5063889;28;20140;-45
2021/08/06 10:47:12;;;;;;;;;;;25.30;96.10;;;;;;5063951;28;19920;-44
2021/08/06 10:49:38;;;;;;;;;;;25.30;96.20;;;;;;5065420;28;19909;-49
2021/08/06 10:52:14;;;;;;;;;;;25.30;96.30;;;;;;5068041;28;19971;-42
2021/08/06 10:54:40;;;;;;;;;;;25.30;96.40;;;;;;5067645;28;19909;-44
2021/08/06 10:57:15;;;;;;;;;;;25.30;96.40;;;;;;5067892;28;19940;-47
2021/08/06 10:59:42;;;;;;;;;;;25.30;96.40;;;;;;5067579;28;19912;-42
2021/08/06 11:02:26;;;;;;;;;;;25.30;96.40;;;;;;5067667;28;19916;-44
2021/08/06 11:04:52;;;;;;;;;;;25.30;96.50;;;;;;5067841;28;19909;-49
2021/08/06 11:07:32;;;;;;;;;;;25.30;96.50;;;;;;5067091;28;20052;-49
2021/08/06 11:09:59;;;;;;;;;;;25.30;96.50;;;;;;5067474;28;20101;-51
2021/08/06 11:12:34;;;;;;;;;;;25.30;96.60;;;;;;5067692;28;19912;-45
2021/08/06 11:15:03;;;;;;;;;;;25.30;96.60;;;;;;5066176;28;19938;-48
2021/08/06 11:17:36;;;;;;;;;;;25.30;96.60;;;;;;5067717;28;19913;-50
2021/08/06 11:20:10;;;;;;;;;;;25.30;96.60;;;;;;5066471;28;20201;-44
2021/08/06 11:22:41;;;;;;;;;;;25.30;96.70;;;;;;5067729;28;19917;-43
2021/08/06 11:25:15;;;;;;;;;;;25.30;96.70;;;;;;5066288;28;19912;-50
2021/08/06 11:27:43;;;;;;;;;;;25.30;96.70;;;;;;5067471;28;20200;-46
2021/08/06 11:30:11;;;;;;;;;;;25.40;96.80;;;;;;5067088;28;20208;-49
2021/08/06 11:32:56;;;;;;;;;;;25.40;96.80;;;;;;5067310;28;19920;-48
2021/08/06 11:35:24;;;;;;;;;;;25.40;97.10;;;;;;5067203;28;19909;-48
2021/08/06 11:37:57;;;;;;;;;;;25.40;96.90;;;;;;5067306;28;20146;-48
2021/08/06 11:40:25;;;;;;;;;;;25.40;97.00;;;;;;5066953;28;19995;-43
2021/08/06 11:42:54;;;;;;;;;;;25.40;97.00;;;;;;5067313;28;19914;-48
2021/08/06 11:45:28;;;;;;;;;;;25.40;97.00;;;;;;5066661;28;19966;-51
2021/08/06 11:48:01;;;;;;;;;;;25.40;97.00;;;;;;5067039;28;20239;-45
2021/08/06 11:50:38;;;;;;;;;;;25.40;97.00;;;;;;5066520;28;19936;-44
2021/08/06 11:53:15;;;;;;;;;;;25.40;96.90;;;;;;5066600;28;20229;-45
2021/08/06 11:55:41;;;;;;;;;;;25.50;96.90;;;;;;5066326;28;19946;-47
2021/08/06 11:58:07;;;;;;;;;;;25.40;97.00;;;;;;5066485;28;19916;-49
2021/08/06 12:00:35;;;;;;;;;;;25.50;97.00;;;;;;5066240;28;19971;-47
2021/08/06 12:03:01;;;;;;;;;;;25.50;97.00;;;;;;5066400;28;19913;-51
2021/08/06 12:05:27;;;;;;;;;;;25.50;97.00;;;;;;5065696;28;20212;-47
2021/08/06 12:07:54;;;;;;;;;;;25.50;97.00;;;;;;5066289;28;20209;-45
2021/08/06 12:10:27;;;;;;;;;;;25.50;97.10;;;;;;5066414;28;19905;-47
2021/08/06 12:12:54;;;;;;;;;;;25.50;97.10;;;;;;5066790;28;19935;-43
2021/08/06 12:15:24;;;;;;;;;;;25.50;97.10;;;;;;5066603;28;19905;-53
2021/08/06 12:18:30;;;;;;;;;;;25.50;97.10;;;;;;5067148;28;19913;-52
2021/08/06 12:20:58;;;;;;;;;;;25.50;97.20;;;;;;5045185;28;19980;-50
2021/08/06 12:23:25;;;;;;;;;;;25.50;97.10;;;;;;5044925;28;19966;-44
2021/08/06 12:26:09;;;;;;;;;;;25.50;97.10;;;;;;5055196;28;19905;-48
2021/08/06 12:28:37;;;;;;;;;;;25.50;97.10;;;;;;5065861;28;19939;-46
2021/08/06 12:31:07;;;;;;;;;;;25.60;97.10;;;;;;5065943;28;20128;-42
2021/08/06 12:33:34;;;;;;;;;;;25.50;97.10;;;;;;5066145;28;19909;-53
2021/08/06 12:36:12;;;;;;;;;;;25.60;97.10;;;;;;5064811;28;20043;-49
2021/08/06 12:38:39;;;;;;;;;;;25.60;97.00;;;;;;5065949;28;19911;-55
2021/08/06 12:41:05;;;;;;;;;;;25.60;97.00;;;;;;5064884;28;19959;-48
2021/08/06 12:43:31;;;;;;;;;;;25.60;96.90;;;;;;5065671;28;19980;-42
2021/08/06 12:46:19;;;;;;;;;;;25.70;96.90;;;;;;5065612;28;19986;-48
2021/08/06 12:49:05;;;;;;;;;;;25.80;96.90;;;;;;5065530;28;19910;-44
2021/08/06 12:51:33;;;;;;;;;;;25.80;96.80;;;;;;5065232;28;19952;-43
2021/08/06 12:53:59;;;;;;;;;;;25.80;96.70;;;;;;5065430;28;19908;-45
2021/08/06 12:56:25;;;;;;;;;;;25.90;96.60;;;;;;5065462;28;19912;-48
2021/08/06 12:59:10;;;;;;;;;;;25.90;96.50;;;;;;5065127;28;20197;-46
2021/08/06 13:01:37;;;;;;;;;;;25.90;96.40;;;;;;5064247;28;19938;-45
2021/08/06 13:04:04;;;;;;;;;;;26.00;96.40;;;;;;5065288;28;19984;-48
2021/08/06 13:06:49;;;;;;;;;;;26.00;96.40;;;;;;5065017;28;19924;-48
2021/08/06 13:09:33;;;;;;;;;;;26.00;96.30;;;;;;5065135;28;19905;-48
2021/08/06 13:12:26;;;;;;;;;;;26.00;96.20;;;;;;5064192;28;19920;-45
2021/08/06 13:14:52;;;;;;;;;;;26.10;96.20;;;;;;5063689;28;19905;-45
2021/08/06 13:17:20;;;;;;;;;;;26.10;96.20;;;;;;5065303;28;19948;-51
2021/08/06 13:19:46;;;;;;;;;;;26.10;96.10;;;;;;5064881;28;19904;-50
2021/08/06 13:22:13;;;;;;;;;;;26.10;96.10;;;;;;5065030;28;20104;-46
2021/08/06 13:24:41;;;;;;;;;;;26.10;96.10;;;;;;5063733;28;19940;-44
2021/08/06 13:27:07;;;;;;;;;;;26.10;96.10;;;;;;5065050;28;19916;-45
2021/08/06 13:29:33;;;;;;;;;;;26.10;96.00;;;;;;5064583;28;19905;-46
2021/08/06 13:32:01;;;;;;;;;;;26.10;95.90;;;;;;5064930;28;19913;-43
2021/08/06 13:34:27;;;;;;;;;;;26.10;95.90;;;;;;5064846;28;19905;-44
2021/08/06 13:36:53;;;;;;;;;;;26.10;95.90;;;;;;5064918;28;19962;-42
2021/08/06 13:39:20;;;;;;;;;;;26.10;95.90;;;;;;5063797;28;20228;-44
2021/08/06 13:41:46;;;;;;;;;;;26.10;95.90;;;;;;5064841;28;19920;-44
2021/08/06 13:44:12;;;;;;;;;;;26.10;95.90;;;;;;5064397;28;19905;-49
2021/08/06 13:46:38;;;;;;;;;;;26.20;95.90;;;;;;5064610;28;19923;-48
2021/08/06 13:49:05;;;;;;;;;;;26.20;95.90;;;;;;5064468;28;19904;-49
2021/08/06 13:51:31;;;;;;;;;;;26.20;95.90;;;;;;5063393;28;19980;-45
2021/08/06 13:53:58;;;;;;;;;;;26.20;95.90;;;;;;5064603;28;19975;-47
2021/08/06 13:56:24;;;;;;;;;;;26.20;95.80;;;;;;5064531;28;19920;-43
2021/08/06 13:58:50;;;;;;;;;;;26.20;95.80;;;;;;5064499;28;19905;-44
2021/08/06 14:01:17;;;;;;;;;;;26.20;95.80;;;;;;5064878;28;19920;-49
2021/08/06 14:03:43;;;;;;;;;;;26.20;95.80;;;;;;5064440;28;19905;-50
2021/08/06 14:06:10;;;;;;;;;;;26.20;95.80;;;;;;5064761;28;20128;-49
2021/08/06 14:08:41;;;;;;;;;;;26.30;95.70;;;;;;5064449;28;19947;-47
2021/08/06 14:11:08;;;;;;;;;;;26.30;95.60;;;;;;5064605;28;19972;-46
2021/08/06 14:13:35;;;;;;;;;;;26.30;95.70;;;;;;5062935;28;19908;-43
2021/08/06 14:16:02;;;;;;;;;;;26.30;95.60;;;;;;5064210;28;19913;-50
2021/08/06 14:18:29;;;;;;;;;;;26.40;95.60;;;;;;5064207;28;19916;-48
2021/08/06 14:20:56;;;;;;;;;;;26.40;95.60;;;;;;5063947;28;19909;-47
2021/08/06 14:23:22;;;;;;;;;;;26.40;95.40;;;;;;5065658;28;19944;-52